Time;durP1;ratioP1;P1;durP2;ratioP2;P2;SDS_P1;SDS_P2;PMS_P1;PMS_P2;Temp;Humidity;BMP_temperature;BMP_pressure;BME280_temperature;BME280_humidity;BME280_pressure;Samples;Min_cycle;Max_cycle;Signal;HPM_P1;HPM_P2
2022/05/11 00:00:35;;;;;;;0.00;0.00;;;18.10;99.90;17.40;97187.00;;;;5061127;28;20194;-70
2022/05/11 00:03:05;;;;;;;0.00;0.00;;;18.10;99.90;17.40;97174.00;;;;5058377;28;20203;-70
2022/05/11 00:05:35;;;;;;;0.00;0.00;;;18.20;99.90;17.30;97178.00;;;;5060043;28;20305;-70
2022/05/11 00:08:04;;;;;;;0.00;0.00;;;18.00;99.90;17.10;97177.00;;;;5037739;28;20700;-70
2022/05/11 00:10:33;;;;;;;0.00;0.00;;;18.00;99.90;17.20;97182.00;;;;5045113;28;20193;-70
2022/05/11 00:13:02;;;;;;;0.00;0.00;;;18.00;99.90;17.20;97117.00;;;;5055201;28;20194;-71
2022/05/11 00:15:30;;;;;;;0.00;0.00;;;17.90;99.90;17.10;97171.00;;;;5062662;28;20229;-71
2022/05/11 00:17:58;;;;;;;0.00;0.00;;;17.90;99.90;17.20;97166.00;;;;5054339;28;20596;-71
2022/05/11 00:20:28;;;;;;;0.00;0.00;;;17.90;99.90;17.10;97172.00;;;;5060411;28;20194;-71
2022/05/11 00:22:59;;;;;;;0.00;0.00;;;17.90;99.90;17.00;97169.00;;;;5074428;28;20247;-71
2022/05/11 00:25:29;;;;;;;0.00;0.00;;;17.80;99.90;16.90;97168.00;;;;5063862;28;20221;-71
2022/05/11 00:27:59;;;;;;;0.00;0.00;;;17.70;99.90;16.90;97162.00;;;;5054686;28;20209;-70
2022/05/11 00:30:30;;;;;;;0.10;0.10;;;17.70;99.90;16.80;97157.00;;;;5059006;28;20201;-70
2022/05/11 00:33:01;;;;;;;0.10;0.10;;;17.60;99.90;16.70;97160.00;;;;5063786;28;20262;-69
2022/05/11 00:35:33;;;;;;;0.00;0.00;;;17.40;99.90;16.60;97161.00;;;;5044373;28;20223;-70
2022/05/11 00:38:04;;;;;;;0.00;0.00;;;17.30;99.90;16.50;97141.00;;;;5033972;28;20191;-69
2022/05/11 00:40:33;;;;;;;0.00;0.00;;;17.30;99.90;16.50;97156.00;;;;5045434;28;20204;-70
2022/05/11 00:43:01;;;;;;;0.00;0.00;;;17.20;99.90;16.50;97155.00;;;;5056689;28;20186;-70
2022/05/11 00:45:30;;;;;;;0.00;0.00;;;17.20;99.90;16.50;97157.00;;;;5044178;28;20223;-70
2022/05/11 00:49:33;;;;;;;0.00;0.00;;;17.20;99.90;16.40;97159.00;;;;5036451;28;20653;-70
2022/05/11 00:50:53;;;;;;;0.00;0.00;;;17.10;99.90;16.40;97150.00;;;;5064870;28;20684;-70
2022/05/11 00:53:22;;;;;;;0.00;0.00;;;17.10;99.90;16.30;97142.00;;;;5051814;28;20189;-71
2022/05/11 00:55:56;;;;;;;0.00;0.00;;;17.00;99.90;16.30;97146.00;;;;5059666;28;20223;-70
2022/05/11 00:58:31;;;;;;;0.00;0.00;;;17.00;99.90;16.30;97144.00;;;;5044898;28;20199;-70
2022/05/11 01:01:00;;;;;;;0.00;0.00;;;16.90;99.90;16.20;97146.00;;;;5053334;28;20711;-70
2022/05/11 01:03:35;;;;;;;0.05;0.05;;;16.90;99.90;16.10;97147.00;;;;5037009;28;20302;-70
2022/05/11 01:06:08;;;;;;;0.00;0.00;;;16.80;99.90;16.10;97134.00;;;;5044267;28;20225;-70
2022/05/11 01:08:37;;;;;;;0.00;0.00;;;16.80;99.90;16.10;97134.00;;;;5053082;28;20203;-70
2022/05/11 01:11:06;;;;;;;0.00;0.00;;;16.80;99.90;16.20;97137.00;;;;5062243;28;20231;-70
2022/05/11 01:13:38;;;;;;;0.00;0.00;;;17.00;99.90;16.30;97140.00;;;;5037173;28;20606;-71
2022/05/11 01:16:06;;;;;;;0.00;0.00;;;17.10;99.90;16.20;97132.00;;;;5037183;28;20595;-70
2022/05/11 01:18:35;;;;;;;0.00;0.00;;;17.10;99.90;16.10;97153.00;;;;5058505;28;20234;-70
2022/05/11 01:21:07;;;;;;;0.00;0.00;;;17.00;99.90;16.10;97113.00;;;;5053114;28;20198;-70
2022/05/11 01:23:46;;;;;;;0.00;0.00;;;17.00;99.90;16.10;97140.00;;;;5034324;28;20653;-69
2022/05/11 01:26:18;;;;;;;0.00;0.00;;;16.90;99.90;16.00;97142.00;;;;5034273;28;20223;-70
2022/05/11 01:28:54;;;;;;;0.00;0.00;;;16.90;99.90;16.00;97144.00;;;;5050387;28;20249;-70
2022/05/11 01:31:23;;;;;;;0.00;0.00;;;16.90;99.90;16.00;97143.00;;;;5056668;28;20194;-70
2022/05/11 01:33:52;;;;;;;0.00;0.00;;;16.90;99.90;16.00;97143.00;;;;5044338;28;20680;-70
2022/05/11 01:36:27;;;;;;;0.00;0.00;;;16.90;99.90;15.80;97137.00;;;;5043308;28;20308;-70
2022/05/11 01:39:00;;;;;;;0.00;0.00;;;16.70;99.90;15.70;97135.00;;;;5032710;28;20257;-69
2022/05/11 01:41:33;;;;;;;0.00;0.00;;;16.70;99.90;15.60;97136.00;;;;5063679;28;20186;-70
2022/05/11 01:44:02;;;;;;;0.00;0.00;;;16.50;99.90;15.50;97134.00;;;;5044855;28;20253;-70
2022/05/11 01:46:30;;;;;;;0.00;0.00;;;16.40;99.90;15.40;97138.00;;;;5031892;28;20214;-70
2022/05/11 01:48:58;;;;;;;0.00;0.00;;;16.20;99.90;15.40;97127.00;;;;5032456;28;20602;-70
2022/05/11 01:51:27;;;;;;;0.00;0.00;;;16.10;99.90;15.30;97133.00;;;;5064232;28;20197;-70
2022/05/11 01:53:55;;;;;;;0.00;0.00;;;16.00;99.90;15.40;97133.00;;;;5054624;28;20183;-70
2022/05/11 01:56:26;;;;;;;0.00;0.00;;;16.10;99.90;15.50;97130.00;;;;5033043;28;20231;-70
2022/05/11 01:58:56;;;;;;;0.00;0.00;;;16.20;99.90;15.40;97135.00;;;;5036075;28;20213;-70
2022/05/11 02:01:28;;;;;;;0.00;0.00;;;16.20;99.90;15.40;97121.00;;;;5067291;28;20552;-70
2022/05/11 02:03:57;;;;;;;0.00;0.00;;;16.20;99.90;15.30;97121.00;;;;5063050;28;20194;-70
2022/05/11 02:09:14;;;;;;;0.05;0.05;;;16.00;99.90;15.30;97116.00;;;;5049606;28;20197;-70
2022/05/11 02:11:42;;;;;;;0.00;0.00;;;16.10;99.90;15.30;97116.00;;;;5061328;28;20190;-70
2022/05/11 02:14:12;;;;;;;0.00;0.00;;;16.00;99.90;15.20;97105.00;;;;5053749;28;20255;-70
2022/05/11 02:16:40;;;;;;;0.00;0.00;;;15.90;99.90;15.20;97110.00;;;;5073105;28;20224;-69
2022/05/11 02:19:08;;;;;;;0.00;0.00;;;15.90;99.90;15.20;97117.00;;;;5056045;28;20272;-69
2022/05/11 02:21:36;;;;;;;0.00;0.00;;;15.90;99.90;15.10;97108.00;;;;5041883;28;20219;-70
2022/05/11 02:24:05;;;;;;;0.00;0.00;;;15.90;99.90;15.20;97106.00;;;;5055997;28;20189;-70
2022/05/11 02:26:34;;;;;;;0.00;0.00;;;15.90;99.90;15.20;97104.00;;;;5071840;28;20756;-70
2022/05/11 02:29:02;;;;;;;0.00;0.00;;;15.90;99.90;15.20;97109.00;;;;5032886;28;20656;-69
2022/05/11 02:31:31;;;;;;;0.00;0.00;;;15.90;99.90;15.20;97111.00;;;;5062982;28;20247;-70
2022/05/11 02:34:02;;;;;;;0.00;0.00;;;16.00;99.90;15.30;97107.00;;;;5069959;28;20204;-69
2022/05/11 02:36:32;;;;;;;0.00;0.00;;;15.90;99.90;15.20;97109.00;;;;5071642;28;20217;-69
2022/05/11 02:39:01;;;;;;;0.00;0.00;;;16.00;99.90;15.30;97109.00;;;;5050575;28;20227;-70
2022/05/11 02:41:28;;;;;;;0.00;0.00;;;16.00;99.90;15.40;97114.00;;;;5066418;28;20189;-71
2022/05/11 02:43:56;;;;;;;0.00;0.00;;;16.20;99.90;15.30;97119.00;;;;5069926;28;20229;-70
2022/05/11 02:46:25;;;;;;;0.00;0.00;;;16.20;99.90;15.20;97116.00;;;;5071485;28;20232;-70
2022/05/11 02:48:54;;;;;;;0.10;0.10;;;16.00;99.90;15.10;97118.00;;;;5054996;28;20198;-70
2022/05/11 02:51:23;;;;;;;0.00;0.00;;;15.80;99.90;15.00;97117.00;;;;5051259;28;20198;-70
2022/05/11 02:53:51;;;;;;;0.00;0.00;;;15.70;99.90;15.00;97113.00;;;;5043899;28;20270;-70
2022/05/11 02:56:19;;;;;;;0.00;0.00;;;15.80;99.90;15.00;97110.00;;;;5055043;28;20276;-71
2022/05/11 02:58:47;;;;;;;0.00;0.00;;;15.80;99.90;15.00;97108.00;;;;5039519;28;20198;-70
2022/05/11 03:01:15;;;;;;;0.00;0.00;;;15.80;99.90;14.90;97109.00;;;;5049198;28;20190;-69
2022/05/11 03:03:43;;;;;;;0.00;0.00;;;15.70;99.90;14.90;97106.00;;;;5052240;28;20205;-70
2022/05/11 03:06:12;;;;;;;0.00;0.00;;;15.70;99.90;15.00;97110.00;;;;5058484;28;20212;-70
2022/05/11 03:08:42;;;;;;;0.00;0.00;;;15.80;99.90;15.00;97105.00;;;;5082281;28;20209;-70
2022/05/11 03:11:10;;;;;;;0.00;0.00;;;15.70;99.90;14.90;97106.00;;;;5070942;28;20652;-70
2022/05/11 03:13:38;;;;;;;0.00;0.00;;;15.70;99.90;14.90;97102.00;;;;5067337;28;20194;-70
2022/05/11 03:16:07;;;;;;;0.00;0.00;;;15.70;99.90;14.90;97104.00;;;;5063344;28;20590;-70
2022/05/11 03:18:35;;;;;;;0.00;0.00;;;15.60;99.90;14.90;97110.00;;;;5063657;28;20199;-70
2022/05/11 03:21:03;;;;;;;0.00;0.00;;;15.70;99.90;14.90;97097.00;;;;5065477;28;20194;-71
2022/05/11 03:23:33;;;;;;;0.00;0.00;;;15.60;99.90;14.80;97097.00;;;;5068663;28;20193;-70
2022/05/11 03:26:01;;;;;;;0.00;0.00;;;15.50;99.90;14.90;97099.00;;;;5052695;28;20254;-70
2022/05/11 03:28:29;;;;;;;0.00;0.00;;;15.60;99.90;14.90;97097.00;;;;5043518;28;20197;-70
2022/05/11 03:30:57;;;;;;;0.00;0.00;;;15.60;99.90;14.90;97086.00;;;;5057966;28;20277;-70
2022/05/11 03:36:11;;;;;;;0.00;0.00;;;15.50;99.90;14.70;97099.00;;;;5050575;28;20230;-70
2022/05/11 03:38:40;;;;;;;0.00;0.00;;;15.40;99.90;14.60;97089.00;;;;5056209;28;20237;-69
2022/05/11 03:41:08;;;;;;;0.00;0.00;;;15.30;99.90;14.60;97097.00;;;;5059203;28;20244;-70
2022/05/11 03:43:36;;;;;;;0.00;0.00;;;15.30;99.90;14.60;97088.00;;;;5050507;28;20706;-70
2022/05/11 03:46:04;;;;;;;0.00;0.00;;;15.30;99.90;14.60;97088.00;;;;5059500;28;20218;-70
2022/05/11 03:48:32;;;;;;;0.00;0.00;;;15.30;99.90;14.60;97091.00;;;;5060397;28;20202;-70
2022/05/11 03:51:01;;;;;;;0.00;0.00;;;15.30;99.90;14.70;97109.00;;;;5059322;28;20237;-70
2022/05/11 03:53:29;;;;;;;0.00;0.00;;;15.30;99.90;14.70;97091.00;;;;5055583;28;20691;-70
2022/05/11 03:55:58;;;;;;;0.00;0.00;;;15.40;99.90;14.70;97082.00;;;;5040745;28;20230;-70
2022/05/11 03:58:26;;;;;;;0.00;0.00;;;15.40;99.90;14.70;97090.00;;;;5052881;28;20190;-71
2022/05/11 04:00:54;;;;;;;0.00;0.00;;;15.40;99.90;14.80;97087.00;;;;5061677;28;20241;-70
2022/05/11 04:03:23;;;;;;;0.00;0.00;;;15.50;99.90;14.80;97100.00;;;;5059222;28;20194;-70
2022/05/11 04:05:51;;;;;;;0.00;0.00;;;15.50;99.90;14.80;97110.00;;;;5059006;28;20311;-70
2022/05/11 04:08:19;;;;;;;0.00;0.00;;;15.50;99.90;14.80;97065.00;;;;5053989;28;20273;-70
2022/05/11 04:10:47;;;;;;;0.00;0.00;;;15.60;99.90;14.90;97096.00;;;;5061896;28;20561;-70
2022/05/11 04:13:16;;;;;;;0.00;0.00;;;15.60;99.90;14.90;97092.00;;;;5047596;28;20194;-70
2022/05/11 04:15:44;;;;;;;0.00;0.00;;;15.60;99.90;15.00;97101.00;;;;5053604;28;20221;-70
2022/05/11 04:18:13;;;;;;;0.00;0.00;;;15.70;99.90;15.00;97097.00;;;;5054399;28;20194;-70
2022/05/11 04:20:42;;;;;;;0.00;0.00;;;15.70;99.90;15.10;97088.00;;;;5067003;28;20205;-70
2022/05/11 04:23:10;;;;;;;0.10;0.10;;;15.80;99.90;15.10;97096.00;;;;5072512;28;20195;-70
2022/05/11 04:25:38;;;;;;;0.00;0.00;;;15.80;99.90;15.10;97101.00;;;;5058399;28;20210;-70
2022/05/11 04:28:09;;;;;;;0.00;0.00;;;15.80;99.90;15.20;97071.00;;;;5066357;28;20208;-70
2022/05/11 04:30:40;;;;;;;0.00;0.00;;;15.80;99.90;15.20;97095.00;;;;5064983;28;20198;-70
2022/05/11 04:33:09;;;;;;;0.00;0.00;;;15.90;99.90;15.20;97092.00;;;;5064987;28;20198;-70
2022/05/11 04:35:37;;;;;;;0.00;0.00;;;15.90;99.90;15.30;97090.00;;;;5065998;28;20207;-71
2022/05/11 04:38:07;;;;;;;0.00;0.00;;;15.90;99.90;15.40;97100.00;;;;5053864;28;20222;-70
2022/05/11 04:40:36;;;;;;;0.00;0.00;;;16.00;99.90;15.40;97098.00;;;;5064460;28;20263;-70
2022/05/11 04:43:09;;;;;;;0.00;0.00;;;16.10;99.90;15.40;97099.00;;;;5053658;28;20198;-71
2022/05/11 04:45:40;;;;;;;0.00;0.00;;;16.10;99.90;15.40;97095.00;;;;5045805;28;20214;-71
2022/05/11 04:48:09;;;;;;;0.00;0.00;;;16.10;99.90;15.50;97102.00;;;;5052527;28;20611;-71
2022/05/11 04:50:39;;;;;;;0.00;0.00;;;16.10;99.90;15.50;97090.00;;;;5059423;28;20212;-70
2022/05/11 04:53:07;;;;;;;0.00;0.00;;;16.20;99.90;15.50;97093.00;;;;5048959;28;20205;-70
2022/05/11 04:55:36;;;;;;;0.00;0.00;;;16.20;99.90;15.60;97094.00;;;;5046621;28;20594;-71
2022/05/11 04:58:05;;;;;;;0.00;0.00;;;16.20;99.90;15.60;97105.00;;;;5054653;28;20254;-70
2022/05/11 05:00:35;;;;;;;0.00;0.00;;;16.30;99.90;15.70;97093.00;;;;5060261;28;20194;-71
2022/05/11 05:03:09;;;;;;;0.00;0.00;;;16.30;99.90;15.80;97090.00;;;;5069093;28;20248;-70
2022/05/11 05:05:38;;;;;;;0.00;0.00;;;16.40;99.90;15.80;97096.00;;;;5053748;28;20217;-70
2022/05/11 05:08:08;;;;;;;0.00;0.00;;;16.40;99.90;15.80;97093.00;;;;5033808;28;20191;-70
2022/05/11 05:10:37;;;;;;;0.00;0.00;;;16.50;99.90;15.80;97095.00;;;;5057567;28;20194;-70
2022/05/11 05:13:11;;;;;;;0.00;0.00;;;16.50;99.90;15.90;97103.00;;;;5056937;28;20757;-70
2022/05/11 05:15:43;;;;;;;0.10;0.10;;;16.50;99.90;16.00;97102.00;;;;5061817;28;20281;-70
2022/05/11 05:18:12;;;;;;;0.00;0.00;;;16.60;99.90;16.10;97116.00;;;;5063604;28;20670;-70
2022/05/11 05:20:40;;;;;;;0.00;0.00;;;16.70;99.90;16.10;97106.00;;;;5056166;28;20198;-70
2022/05/11 05:23:08;;;;;;;0.00;0.00;;;16.70;99.90;16.10;97109.00;;;;5041687;28;20195;-71
2022/05/11 05:25:36;;;;;;;0.00;0.00;;;16.80;99.90;16.20;97106.00;;;;5058691;28;20217;-72
2022/05/11 05:31:05;;;;;;;0.00;0.00;;;16.80;99.90;16.20;97098.00;;;;5033070;28;20734;-71
2022/05/11 05:33:38;;;;;;;0.10;0.10;;;16.90;99.90;16.30;97133.00;;;;5039978;28;20577;-71
2022/05/11 05:36:08;;;;;;;0.00;0.00;;;17.00;99.90;16.40;97113.00;;;;5056498;28;20221;-72
2022/05/11 05:38:38;;;;;;;0.10;0.10;;;17.00;99.90;16.40;97107.00;;;;5048875;28;20553;-72
2022/05/11 05:41:07;;;;;;;0.00;0.00;;;17.00;99.90;16.50;97106.00;;;;5032889;28;20599;-71
2022/05/11 05:43:35;;;;;;;0.00;0.00;;;17.10;99.90;16.50;97111.00;;;;5043261;28;20186;-71
2022/05/11 05:46:03;;;;;;;0.00;0.00;;;17.10;99.90;16.50;97102.00;;;;5067991;28;20484;-71
2022/05/11 05:48:31;;;;;;;0.00;0.00;;;17.20;99.90;16.60;97107.00;;;;5062865;28;20555;-71
2022/05/11 05:51:07;;;;;;;0.00;0.00;;;17.20;99.90;16.70;97112.00;;;;5052251;28;20279;-71
2022/05/11 05:53:36;;;;;;;0.00;0.00;;;17.30;99.90;16.70;97103.00;;;;5060301;28;20207;-71
2022/05/11 05:56:04;;;;;;;0.00;0.00;;;17.40;99.90;16.80;97111.00;;;;5054465;28;20215;-69
2022/05/11 05:58:32;;;;;;;0.00;0.00;;;17.40;99.90;16.90;97098.00;;;;5049513;28;20222;-71
2022/05/11 06:01:01;;;;;;;0.00;0.00;;;17.50;99.90;17.00;97071.00;;;;5052263;28;20186;-71
2022/05/11 06:03:35;;;;;;;0.00;0.00;;;17.60;99.90;17.10;97105.00;;;;5058940;28;20272;-71
2022/05/11 06:06:07;;;;;;;0.00;0.00;;;17.70;99.90;17.10;97102.00;;;;5056431;28;20245;-71
2022/05/11 06:08:36;;;;;;;0.00;0.00;;;17.70;99.90;17.20;97104.00;;;;5052477;28;20198;-71
2022/05/11 06:11:07;;;;;;;0.00;0.00;;;17.80;99.90;17.20;97093.00;;;;5052427;28;20205;-71
2022/05/11 06:13:37;;;;;;;0.00;0.00;;;17.80;99.90;17.10;97118.00;;;;5057598;28;20247;-71
2022/05/11 06:16:12;;;;;;;0.00;0.00;;;17.80;99.90;17.30;97107.00;;;;5052488;28;20214;-71
2022/05/11 06:18:41;;;;;;;0.00;0.00;;;17.90;99.90;17.30;97100.00;;;;5051119;28;20221;-71
2022/05/11 06:21:13;;;;;;;0.00;0.00;;;17.90;99.90;17.40;97096.00;;;;5052346;28;20190;-71
2022/05/11 06:23:42;;;;;;;0.00;0.00;;;18.00;99.90;17.50;97106.00;;;;5052103;28;20668;-71
2022/05/11 06:26:10;;;;;;;0.00;0.00;;;18.10;99.90;17.50;97106.00;;;;5043362;28;20226;-71
2022/05/11 06:28:40;;;;;;;0.00;0.00;;;18.10;99.90;17.60;97110.00;;;;5031069;28;20228;-71
2022/05/11 06:31:19;;;;;;;0.00;0.00;;;18.20;99.90;17.70;97115.00;;;;5049967;28;20194;-71
2022/05/11 06:33:49;;;;;;;0.00;0.00;;;18.30;99.90;17.80;97112.00;;;;5051392;28;20199;-71
2022/05/11 06:36:22;;;;;;;0.00;0.00;;;18.40;99.90;17.90;97107.00;;;;5051086;28;20206;-71
2022/05/11 06:38:51;;;;;;;0.00;0.00;;;18.50;99.90;18.00;97097.00;;;;5051094;28;20218;-71
2022/05/11 06:41:23;;;;;;;0.00;0.00;;;18.60;99.90;18.20;97104.00;;;;5052077;28;20190;-70
2022/05/11 06:43:52;;;;;;;0.00;0.00;;;18.70;99.90;18.30;97119.00;;;;5051463;28;20248;-69
2022/05/11 06:46:21;;;;;;;0.00;0.00;;;18.90;99.90;18.50;97111.00;;;;5050527;28;20239;-71
2022/05/11 06:48:49;;;;;;;0.00;0.00;;;19.00;99.90;18.60;97108.00;;;;5046389;28;20209;-70
2022/05/11 06:51:21;;;;;;;0.00;0.00;;;19.20;99.90;18.80;97102.00;;;;5040481;28;20651;-70
2022/05/11 06:59:26;;;;;;;0.00;0.00;;;19.70;99.90;19.40;97085.00;;;;5031464;28;20573;-70
2022/05/11 07:01:57;;;;;;;0.00;0.00;;;19.90;99.90;19.50;97090.00;;;;5032198;28;20558;-71
2022/05/11 07:04:27;;;;;;;0.00;0.00;;;20.00;99.90;19.70;97087.00;;;;5031856;28;20195;-71
2022/05/11 07:06:58;;;;;;;0.00;0.00;;;20.20;99.90;19.80;97075.00;;;;5031151;28;20195;-71
2022/05/11 07:09:31;;;;;;;0.00;0.00;;;20.30;99.90;20.00;97074.00;;;;5038941;28;20242;-71
2022/05/11 07:12:20;;;;;;;0.00;0.00;;;20.50;99.90;20.30;97078.00;;;;5051581;28;20273;-71
2022/05/11 07:14:53;;;;;;;0.00;0.00;;;20.70;99.90;20.50;97081.00;;;;5052064;28;20245;-71
2022/05/11 07:17:27;;;;;;;0.00;0.00;;;21.00;99.90;20.60;97091.00;;;;5050842;28;20593;-71
2022/05/11 07:19:55;;;;;;;0.00;0.00;;;21.00;99.90;20.70;97073.00;;;;5051215;28;20202;-70
2022/05/11 07:22:25;;;;;;;0.00;0.00;;;21.20;99.90;20.80;97070.00;;;;5051580;28;20256;-71
2022/05/11 07:24:52;;;;;;;0.00;0.00;;;21.30;99.90;20.90;97068.00;;;;5051438;28;20214;-70
2022/05/11 07:27:22;;;;;;;0.00;0.00;;;21.40;99.90;21.10;97072.00;;;;5050301;28;20283;-70
2022/05/11 07:29:53;;;;;;;0.00;0.00;;;21.50;99.90;21.20;97066.00;;;;5050455;28;20204;-71
2022/05/11 07:32:23;;;;;;;0.00;0.00;;;21.70;99.90;21.30;97090.00;;;;5050740;28;20191;-69
2022/05/11 07:34:51;;;;;;;0.00;0.00;;;21.80;99.90;21.40;97088.00;;;;5050808;28;20210;-71
2022/05/11 07:37:22;;;;;;;0.00;0.00;;;21.80;99.90;21.50;97089.00;;;;5060572;28;20243;-70
2022/05/11 07:39:52;;;;;;;0.00;0.00;;;21.90;99.90;21.50;97073.00;;;;5070373;28;20202;-70
2022/05/11 07:42:20;;;;;;;0.00;0.00;;;21.90;99.90;21.70;97066.00;;;;5061995;28;20277;-70
2022/05/11 07:44:48;;;;;;;0.00;0.00;;;22.10;99.90;21.80;97068.00;;;;5051643;28;20223;-71
2022/05/11 07:47:16;;;;;;;0.00;0.00;;;22.20;99.90;21.90;97077.00;;;;5050163;28;20531;-71
2022/05/11 07:49:44;;;;;;;0.00;0.00;;;22.30;99.90;22.00;97078.00;;;;5050673;28;20763;-71
2022/05/11 07:52:12;;;;;;;0.00;0.00;;;22.40;99.90;22.20;97069.00;;;;5051562;28;20186;-71
2022/05/11 07:54:41;;;;;;;0.00;0.00;;;22.60;99.90;22.20;97086.00;;;;5052154;28;20218;-70
2022/05/11 07:59:59;;;;;;;0.00;0.00;;;22.60;99.90;22.30;97065.00;;;;5067403;28;20200;-71
2022/05/11 08:02:30;;;;;;;0.00;0.00;;;22.70;99.90;22.50;97066.00;;;;5074650;28;20190;-71
2022/05/11 08:05:01;;;;;;;0.00;0.00;;;22.90;99.90;22.50;97066.00;;;;5054619;28;20214;-70
2022/05/11 08:07:37;;;;;;;0.00;0.00;;;22.90;99.90;22.60;97063.00;;;;5053497;28;20195;-70
2022/05/11 08:10:14;;;;;;;0.00;0.00;;;23.00;99.90;22.70;97069.00;;;;5037657;28;20209;-70
2022/05/11 08:12:43;;;;;;;0.00;0.00;;;23.10;99.90;22.60;97065.00;;;;5036852;28;20199;-70
2022/05/11 08:15:13;;;;;;;0.00;0.00;;;23.00;99.90;22.80;97071.00;;;;5069356;28;20210;-70
2022/05/11 08:17:44;;;;;;;0.00;0.00;;;23.20;99.90;23.00;97050.00;;;;5053358;28;20256;-71
2022/05/11 08:20:17;;;;;;;0.00;0.00;;;23.30;99.90;23.00;97063.00;;;;5048790;28;20197;-71
2022/05/11 08:22:48;;;;;;;0.00;0.00;;;23.40;99.90;23.20;97062.00;;;;5057299;28;20581;-71
2022/05/11 08:25:20;;;;;;;0.00;0.00;;;23.50;99.90;23.30;97063.00;;;;5072312;28;20255;-70
2022/05/11 08:27:52;;;;;;;0.00;0.00;;;23.60;99.90;23.30;97055.00;;;;5050980;28;20213;-71
2022/05/11 08:33:23;;;;;;;0.00;0.00;;;23.60;99.90;23.30;97068.00;;;;5052836;28;20630;-71
2022/05/11 08:36:16;;;;;;;0.00;0.00;;;23.70;99.90;23.50;97055.00;;;;5061899;28;20230;-71
2022/05/11 08:38:47;;;;;;;0.00;0.00;;;23.80;99.90;23.50;97059.00;;;;5053122;28;20306;-71
2022/05/11 08:41:32;;;;;;;0.00;0.00;;;23.80;99.90;23.60;97052.00;;;;5042734;28;20548;-71
2022/05/11 08:44:06;;;;;;;0.00;0.00;;;23.90;99.90;23.50;97068.00;;;;5045723;28;20199;-71
2022/05/11 08:46:46;;;;;;;0.00;0.00;;;23.80;99.90;23.20;96770.00;;;;5043854;28;20239;-71
2022/05/11 08:49:24;;;;;;;0.00;0.00;;;23.70;99.90;23.30;96450.00;;;;5045969;28;20217;-70
2022/05/11 08:52:01;;;;;;;0.00;0.00;;;23.90;99.90;23.80;97066.00;;;;5045348;28;20198;-70
2022/05/11 08:54:44;;;;;;;0.00;0.00;;;24.10;99.90;23.80;97078.00;;;;5044735;28;20679;-71
2022/05/11 08:57:18;;;;;;;0.00;0.00;;;24.10;99.90;23.80;97073.00;;;;5044024;28;20237;-71
2022/05/11 08:59:47;;;;;;;0.00;0.00;;;24.10;99.90;23.70;97058.00;;;;5044907;28;20227;-71
2022/05/11 09:02:23;;;;;;;0.00;0.00;;;24.10;99.90;24.00;97064.00;;;;5044756;28;20571;-71
2022/05/11 09:04:55;;;;;;;0.00;0.00;;;24.30;99.90;24.10;97067.00;;;;5044229;28;20222;-71
2022/05/11 09:07:23;;;;;;;0.00;0.00;;;24.40;99.90;23.70;96479.00;;;;5042341;28;20195;-71
2022/05/11 09:09:53;;;;;;;0.00;0.00;;;24.40;99.90;23.90;96563.00;;;;5044245;28;20289;-71
2022/05/11 09:12:21;;;;;;;0.00;0.00;;;24.60;99.90;23.60;96490.00;;;;5044728;28;20237;-71
2022/05/11 09:14:56;;;;;;;0.00;0.00;;;24.30;99.90;23.60;96525.00;;;;5044165;28;20272;-71
2022/05/11 09:17:28;;;;;;;0.00;0.00;;;24.30;99.90;23.70;96411.00;;;;5042574;28;20267;-71
2022/05/11 09:20:05;;;;;;;0.00;0.00;;;24.40;99.90;23.90;96468.00;;;;5045346;28;20230;-71
2022/05/11 09:22:37;;;;;;;0.00;0.00;;;24.50;99.90;24.00;96457.00;;;;5045224;28;20208;-71
2022/05/11 09:25:20;;;;;;;0.00;0.00;;;24.70;99.90;24.10;96469.00;;;;5050198;28;20218;-70
2022/05/11 09:27:50;;;;;;;0.00;0.00;;;24.70;99.90;23.70;96380.00;;;;5049860;28;20209;-71
2022/05/11 09:30:25;;;;;;;0.00;0.00;;;24.40;99.90;23.60;96629.00;;;;5048929;28;20221;-70
2022/05/11 09:33:15;;;;;;;0.00;0.00;;;24.30;99.90;24.10;97193.00;;;;5043987;28;20213;-70
2022/05/11 09:35:44;;;;;;;0.00;0.00;;;24.40;99.90;23.80;97069.00;;;;5043630;28;20226;-71
2022/05/11 09:38:35;;;;;;;0.00;0.00;;;24.20;99.90;23.90;97067.00;;;;5044110;28;20575;-71
2022/05/11 09:41:13;;;;;;;0.00;0.00;;;24.20;99.90;24.20;97079.00;;;;5044008;28;20202;-71
2022/05/11 09:43:46;;;;;;;0.00;0.00;;;24.50;99.90;24.20;97069.00;;;;5045412;28;20202;-71
2022/05/11 09:46:24;;;;;;;0.00;0.00;;;24.50;99.90;24.30;97080.00;;;;5043926;28;20562;-71
2022/05/11 09:49:04;;;;;;;0.00;0.00;;;24.60;99.90;24.30;97080.00;;;;5043611;28;20198;-71
2022/05/11 09:51:40;;;;;;;0.00;0.00;;;24.60;99.90;24.50;97065.00;;;;5044319;28;20237;-71
2022/05/11 09:54:28;;;;;;;0.00;0.00;;;24.80;99.80;24.60;97062.00;;;;5045894;28;20221;-71
2022/05/11 09:57:01;;;;;;;0.00;0.00;;;24.90;99.30;24.70;97054.00;;;;5044567;28;20573;-70
2022/05/11 09:59:36;;;;;;;0.00;0.00;;;25.00;98.90;24.90;97055.00;;;;5042947;28;20654;-71
2022/05/11 10:02:26;;;;;;;0.00;0.00;;;25.10;98.90;24.90;97045.00;;;;5046429;28;20280;-71
2022/05/11 10:05:02;;;;;;;0.00;0.00;;;25.20;99.40;25.00;97051.00;;;;5044573;28;20223;-70
2022/05/11 10:07:38;;;;;;;0.00;0.00;;;25.30;99.50;25.30;97039.00;;;;5042884;28;20206;-71
2022/05/11 10:10:13;;;;;;;0.00;0.00;;;25.50;99.20;25.50;97019.00;;;;5044201;28;20683;-71
2022/05/11 10:12:44;;;;;;;0.00;0.00;;;25.70;98.70;25.30;97042.00;;;;5048995;28;20208;-71
2022/05/11 10:24:15;;;;;;;0.00;0.00;;;26.30;98.00;26.00;97033.00;;;;5046470;28;20225;-71
2022/05/11 10:26:51;;;;;;;0.00;0.00;;;26.10;97.70;25.90;97031.00;;;;5046504;28;20222;-70
2022/05/11 10:29:37;;;;;;;0.00;0.00;;;26.10;97.80;25.80;97030.00;;;;5045986;28;20209;-72
2022/05/11 10:32:15;;;;;;;0.00;0.00;;;26.00;97.50;25.90;97022.00;;;;5043962;28;20206;-72
2022/05/11 10:35:00;;;;;;;0.00;0.00;;;26.10;98.10;26.00;97037.00;;;;5044252;28;20268;-71
2022/05/11 10:37:38;;;;;;;0.00;0.00;;;26.20;97.30;25.90;97000.00;;;;5042591;28;20299;-71
2022/05/11 10:40:21;;;;;;;0.00;0.00;;;26.10;97.50;25.30;97007.00;;;;5043780;28;20218;-71
2022/05/11 10:43:12;;;;;;;0.00;0.00;;;25.70;97.30;24.90;97014.00;;;;5044506;28;20248;-71
2022/05/11 10:45:50;;;;;;;0.00;0.00;;;25.20;97.40;25.10;96998.00;;;;5042795;28;20232;-71
2022/05/11 10:48:50;;;;;;;0.00;0.00;;;25.30;97.40;25.00;96993.00;;;;5043587;28;20198;-71
2022/05/11 10:51:32;;;;;;;0.00;0.00;;;25.30;97.70;25.30;96991.00;;;;5043458;28;20201;-69
2022/05/11 10:54:14;;;;;;;0.00;0.00;;;25.50;97.30;25.60;97002.00;;;;5044860;28;20207;-69
2022/05/11 10:56:53;;;;;;;0.00;0.00;;;25.90;96.30;25.50;97007.00;;;;5043662;28;20205;-72
2022/05/11 10:59:53;;;;;;;0.00;0.00;;;25.80;96.50;25.40;97001.00;;;;5044990;28;20202;-71
2022/05/11 11:03:24;;;;;;;0.00;0.00;;;25.70;96.30;25.40;96993.00;;;;5039010;28;20264;-71
2022/05/11 11:09:16;;;;;;;0.00;0.00;;;25.70;96.00;25.70;97101.00;;;;5045615;28;20213;-71
2022/05/11 11:11:59;;;;;;;0.00;0.00;;;25.90;96.20;25.60;96980.00;;;;5044437;28;20216;-71
2022/05/11 11:14:32;;;;;;;0.00;0.00;;;25.90;96.30;25.90;96996.00;;;;5042306;28;20221;-71
2022/05/11 11:17:07;;;;;;;0.00;0.00;;;26.10;96.20;26.10;96963.00;;;;5047805;28;20286;-71
2022/05/11 11:19:37;;;;;;;0.00;0.00;;;26.30;95.80;26.50;96965.00;;;;5042712;28;20583;-71
2022/05/11 11:22:06;;;;;;;0.00;0.00;;;26.70;95.40;26.30;96968.00;;;;5042541;28;20209;-71
2022/05/11 11:24:38;;;;;;;0.00;0.00;;;26.50;95.40;26.20;96977.00;;;;5041865;28;20226;-71
2022/05/11 11:27:08;;;;;;;0.00;0.00;;;26.30;95.40;26.00;96968.00;;;;5044302;28;20284;-71
2022/05/11 11:29:38;;;;;;;0.00;0.00;;;26.20;95.80;26.20;96966.00;;;;5046478;28;20255;-71
2022/05/11 11:32:16;;;;;;;0.00;0.00;;;26.40;95.00;26.30;96969.00;;;;5046644;28;20210;-71
2022/05/11 11:34:49;;;;;;;0.00;0.00;;;26.40;95.00;26.10;96961.00;;;;5044885;28;20222;-72
2022/05/11 11:37:58;;;;;;;0.00;0.00;;;26.30;95.00;26.30;96971.00;;;;5044003;28;20197;-71
2022/05/11 11:40:34;;;;;;;0.00;0.00;;;26.40;94.70;26.10;96963.00;;;;5046294;28;20688;-71
2022/05/11 11:43:45;;;;;;;0.00;0.00;;;26.30;94.20;26.50;96966.00;;;;5045513;28;20221;-70
2022/05/11 11:46:32;;;;;;;0.00;0.00;;;26.60;94.10;26.70;96954.00;;;;5045942;28;20218;-71
2022/05/11 11:49:09;;;;;;;0.00;0.00;;;26.90;94.10;26.90;96933.00;;;;5045370;28;20225;-70